Time;durP1;ratioP1;P1;durP2;ratioP2;P2;SDS_P1;SDS_P2;PMS_P1;PMS_P2;Temp;Humidity;BMP_temperature;BMP_pressure;BME280_temperature;BME280_humidity;BME280_pressure;Samples;Min_cycle;Max_cycle;Signal;HPM_P1;HPM_P2
2022/03/10 00:04:01;;;;;;;4.15;3.00;;;;;;;19.40;40.95;97722.00;10102385;29;20059;-57
2022/03/10 00:09:20;;;;;;;4.85;3.00;;;;;;;19.38;40.82;97726.91;10092627;29;20064;-58
2022/03/10 00:14:39;;;;;;;4.40;3.15;;;;;;;19.38;40.93;97731.50;10098638;29;20520;-57
2022/03/10 00:19:59;;;;;;;4.15;3.05;;;;;;;19.36;40.71;97729.09;10090607;29;20509;-57
2022/03/10 00:25:19;;;;;;;4.55;2.95;;;;;;;19.34;40.98;97734.81;10093889;29;20049;-58
2022/03/10 00:30:39;;;;;;;4.30;2.92;;;;;;;19.34;40.62;97736.72;10099374;29;20113;-57
2022/03/10 00:35:58;;;;;;;3.75;3.03;;;;;;;19.32;40.65;97736.22;10097050;29;20056;-57
2022/03/10 00:41:18;;;;;;;3.88;2.72;;;;;;;19.31;40.71;97737.31;10097230;29;20538;-57
2022/03/10 00:46:37;;;;;;;3.40;2.70;;;;;;;19.29;40.52;97736.81;10095887;29;20072;-57
2022/03/10 00:51:57;;;;;;;4.07;2.97;;;;;;;19.28;40.42;97744.09;10094622;29;20045;-58
2022/03/10 00:57:16;;;;;;;2.90;2.40;;;;;;;19.26;40.55;97745.50;10108327;29;20045;-58
2022/03/10 01:02:36;;;;;;;3.13;2.50;;;;;;;19.25;40.36;97746.59;10100662;29;20060;-57
2022/03/10 01:07:55;;;;;;;4.20;2.58;;;;;;;19.24;40.42;97745.81;10114219;29;21866;-57
2022/03/10 01:13:18;;;;;;;3.33;2.38;;;;;;;19.21;40.38;97746.41;10101294;29;20128;-57
2022/03/10 01:18:38;;;;;;;3.13;2.42;;;;;;;19.21;40.38;97748.31;10100772;29;20579;-57
2022/03/10 01:23:57;;;;;;;3.40;2.40;;;;;;;19.20;40.39;97754.81;10100504;29;20083;-58
2022/03/10 01:29:17;;;;;;;3.22;2.30;;;;;;;19.18;40.31;97749.72;10101401;29;20096;-57
2022/03/10 01:34:40;;;;;;;2.80;2.10;;;;;;;19.16;40.30;97755.41;10098477;29;20057;-57
2022/03/10 01:39:59;;;;;;;3.35;2.40;;;;;;;19.15;40.20;97767.31;10099901;29;20428;-57
2022/03/10 01:45:19;;;;;;;4.03;2.58;;;;;;;19.13;40.13;97761.41;10093094;29;20085;-57
2022/03/10 01:50:39;;;;;;;3.33;2.28;;;;;;;19.11;40.22;97760.91;10108546;29;20412;-57
2022/03/10 01:55:59;;;;;;;3.63;2.28;;;;;;;19.10;40.13;97762.00;10100729;29;20052;-57
2022/03/10 02:01:18;;;;;;;3.10;2.17;;;;;;;19.09;40.02;97765.81;10106018;29;20065;-57
2022/03/10 02:06:38;;;;;;;3.67;2.38;;;;;;;19.07;40.15;97759.91;10103979;29;20064;-58
2022/03/10 02:11:58;;;;;;;3.50;2.40;;;;;;;19.07;39.91;97769.88;10106584;29;20071;-57
2022/03/10 02:17:20;;;;;;;3.42;2.42;;;;;;;19.05;39.84;97772.91;10099857;29;20068;-57
2022/03/10 02:22:40;;;;;;;3.38;2.25;;;;;;;19.04;39.80;97776.69;10097397;29;20465;-57
2022/03/10 02:27:59;;;;;;;3.22;2.20;;;;;;;19.02;39.86;97780.81;10099071;29;20051;-57
2022/03/10 02:33:19;;;;;;;2.95;2.10;;;;;;;19.02;39.92;97794.31;10098874;29;20516;-57
2022/03/10 02:38:38;;;;;;;3.85;2.10;;;;;;;18.99;39.89;97792.19;10099276;29;20061;-57
2022/03/10 02:43:58;;;;;;;2.63;2.10;;;;;;;18.98;39.77;97798.69;10111049;29;20053;-57
2022/03/10 02:49:17;;;;;;;3.72;2.00;;;;;;;18.96;39.78;97807.09;10096142;29;20071;-57
2022/03/10 02:54:37;;;;;;;3.28;2.40;;;;;;;18.95;39.86;97816.28;10083617;29;20049;-57
2022/03/10 02:59:58;;;;;;;2.72;2.08;;;;;;;18.93;39.57;97813.06;10096992;29;20458;-57
2022/03/10 03:05:18;;;;;;;2.55;2.13;;;;;;;18.92;39.69;97824.97;10101147;29;20053;-57
2022/03/10 03:10:38;;;;;;;3.53;2.10;;;;;;;18.90;39.61;97832.56;10086354;29;20080;-57
2022/03/10 03:15:57;;;;;;;2.50;1.90;;;;;;;18.88;39.56;97826.66;10101705;29;20045;-57
2022/03/10 03:21:17;;;;;;;3.20;2.03;;;;;;;18.88;39.61;97832.84;10110530;29;20180;-57
2022/03/10 03:26:37;;;;;;;2.80;2.05;;;;;;;18.86;39.60;97831.56;10104779;29;20064;-57
2022/03/10 03:31:57;;;;;;;3.83;2.05;;;;;;;18.85;39.55;97830.72;10095250;29;20057;-59
2022/03/10 03:37:16;;;;;;;2.55;2.08;;;;;;;18.83;39.55;97840.22;10117715;29;20108;-57
2022/03/10 03:42:36;;;;;;;2.03;1.83;;;;;;;18.80;39.42;97836.22;10095928;29;20053;-57
2022/03/10 03:47:55;;;;;;;2.20;2.00;;;;;;;18.78;39.29;97836.50;10094274;29;20501;-57
2022/03/10 03:53:14;;;;;;;2.40;1.80;;;;;;;18.78;39.46;97846.50;10095250;29;20057;-58
2022/03/10 03:58:34;;;;;;;2.53;2.05;;;;;;;18.76;39.34;97849.47;10104962;29;20064;-57
2022/03/10 04:03:54;;;;;;;3.58;2.25;;;;;;;18.75;39.26;97850.56;10091086;29;20052;-57
2022/03/10 04:09:13;;;;;;;2.35;2.08;;;;;;;18.73;39.20;97843.84;10095182;29;20048;-57
2022/03/10 04:14:32;;;;;;;2.45;1.95;;;;;;;18.71;39.17;97844.16;10100462;29;20524;-57
2022/03/10 04:19:52;;;;;;;2.72;2.17;;;;;;;18.71;39.40;97843.34;10086522;29;20049;-58
2022/03/10 04:25:11;;;;;;;2.38;1.90;;;;;;;18.69;39.23;97846.34;10099057;29;20120;-57
2022/03/10 04:30:34;;;;;;;2.30;1.90;;;;;;;18.69;39.19;97848.25;10103637;29;20064;-57
2022/03/10 04:35:55;;;;;;;2.35;1.95;;;;;;;18.66;39.02;97854.22;10104352;29;20061;-57
2022/03/10 04:41:14;;;;;;;2.97;2.00;;;;;;;18.65;39.00;97866.13;10099377;29;20053;-57
2022/03/10 04:46:34;;;;;;;2.38;2.17;;;;;;;18.63;38.99;97866.41;10099509;29;20057;-57
2022/03/10 04:51:53;;;;;;;2.83;2.10;;;;;;;18.62;39.09;97862.13;10103269;29;20488;-57
2022/03/10 04:57:13;;;;;;;2.20;2.00;;;;;;;18.61;38.94;97868.59;10109634;29;20096;-57
2022/03/10 05:02:32;;;;;;;3.03;2.20;;;;;;;18.61;38.92;97867.78;10097658;29;20493;-57
2022/03/10 05:07:51;;;;;;;1.90;1.70;;;;;;;18.58;38.65;97874.56;10101576;29;20049;-57
2022/03/10 05:13:11;;;;;;;2.08;1.60;;;;;;;18.58;39.04;97877.25;10098953;29;20117;-57
2022/03/10 05:18:30;;;;;;;2.60;1.70;;;;;;;18.57;39.03;97879.16;10096975;29;20477;-57
2022/03/10 05:23:52;;;;;;;3.35;2.00;;;;;;;18.58;39.20;97878.09;10094350;29;20053;-58
2022/03/10 05:29:12;;;;;;;2.45;1.80;;;;;;;18.59;39.57;97878.88;10098377;29;20097;-58
2022/03/10 05:34:31;;;;;;;2.30;2.10;;;;;;;18.60;39.46;97885.88;10101353;29;20060;-58
2022/03/10 05:39:50;;;;;;;4.28;1.88;;;;;;;18.61;39.75;97895.56;10101216;29;20382;-57
2022/03/10 05:45:10;;;;;;;2.42;2.00;;;;;;;18.64;39.64;97897.72;10100952;29;20516;-57
2022/03/10 05:50:30;;;;;;;4.00;3.53;;;;;;;18.67;39.39;97901.72;10097842;29;20049;-58
2022/03/10 05:55:50;;;;;;;3.17;2.50;;;;;;;18.66;39.51;97900.09;10099057;29;20138;-57
2022/03/10 06:01:11;;;;;;;3.67;2.17;;;;;;;18.68;39.81;97897.91;10110798;29;20440;-57
2022/03/10 06:06:30;;;;;;;4.65;2.45;;;;;;;18.70;39.92;97901.13;10100386;29;20104;-58
2022/03/10 06:11:50;;;;;;;2.42;2.10;;;;;;;18.73;39.82;97914.03;10097570;29;20052;-57
2022/03/10 06:17:09;;;;;;;3.58;2.22;;;;;;;18.75;40.14;97915.34;10096170;29;20053;-58
2022/03/10 06:22:29;;;;;;;5.57;2.30;;;;;;;18.80;40.34;97913.69;10089886;29;20053;-57
2022/03/10 06:27:49;;;;;;;4.57;2.60;;;;;;;18.83;40.08;97918.53;10089253;29;20493;-58
2022/03/10 06:33:09;;;;;;;3.50;2.30;;;;;;;18.88;40.10;97929.25;10100173;29;20053;-58
2022/03/10 06:38:28;;;;;;;3.28;2.42;;;;;;;18.90;40.16;97935.97;10099382;29;20041;-59
2022/03/10 06:43:48;;;;;;;8.10;3.13;;;;;;;18.94;39.81;97936.19;10096220;29;20310;-59
2022/03/10 06:49:07;;;;;;;9.20;3.55;;;;;;;18.98;39.95;97942.59;10098033;29;20109;-59
2022/03/10 06:54:27;;;;;;;9.63;3.85;;;;;;;19.03;39.97;97937.13;10098346;29;20049;-59
2022/03/10 06:59:46;;;;;;;7.20;3.55;;;;;;;19.09;39.80;97948.66;10099326;29;20067;-59
2022/03/10 07:05:07;;;;;;;10.60;4.30;;;;;;;19.13;39.94;97942.38;10093571;29;20464;-59
2022/03/10 07:10:27;;;;;;;9.82;3.90;;;;;;;19.20;39.91;97941.22;10081504;29;20061;-59
2022/03/10 07:15:46;;;;;;;10.85;4.13;;;;;;;19.24;39.88;97950.31;10095849;29;20053;-59
2022/03/10 07:21:06;;;;;;;12.70;4.43;;;;;;;19.27;39.83;97952.47;10078768;29;20529;-59
2022/03/10 07:26:25;;;;;;;10.65;4.22;;;;;;;19.32;39.84;97945.03;10089808;29;20076;-59
2022/03/10 07:31:45;;;;;;;9.82;4.25;;;;;;;19.39;39.93;97952.00;10093728;29;20061;-59
2022/03/10 07:37:04;;;;;;;9.52;4.30;;;;;;;19.42;39.93;97954.09;10088412;29;20072;-59
2022/03/10 07:42:24;;;;;;;7.80;4.00;;;;;;;19.49;39.79;97966.13;10098360;29;20049;-59
2022/03/10 07:47:44;;;;;;;9.48;4.10;;;;;;;19.54;39.83;97970.66;10107146;29;20056;-59
2022/03/10 07:53:04;;;;;;;10.18;3.97;;;;;;;19.59;39.78;97967.88;10107034;29;20048;-59
2022/03/10 07:58:25;;;;;;;10.60;4.30;;;;;;;19.65;39.72;97974.00;10105202;29;20056;-59
2022/03/10 08:03:48;;;;;;;9.73;3.90;;;;;;;19.69;39.50;97969.59;10101782;29;20080;-59
2022/03/10 08:09:10;;;;;;;9.05;4.20;;;;;;;19.75;39.47;97981.97;10096758;29;20057;-60
2022/03/10 08:14:30;;;;;;;8.07;3.63;;;;;;;19.81;39.28;97980.78;10100293;29;20056;-60
2022/03/10 08:19:49;;;;;;;8.82;3.72;;;;;;;19.86;39.48;97974.50;10077501;29;20061;-59
2022/03/10 08:25:09;;;;;;;8.48;4.25;;;;;;;19.92;39.34;97974.09;10091415;29;20052;-59
2022/03/10 08:30:28;;;;;;;9.25;3.83;;;;;;;19.97;39.33;97980.50;10098559;29;20065;-59
2022/03/10 08:35:48;;;;;;;8.35;3.95;;;;;;;20.02;39.26;97975.00;10093969;29;20049;-58
2022/03/10 08:41:08;;;;;;;7.75;4.00;;;;;;;20.06;39.36;97973.31;10090072;29;20108;-59
2022/03/10 08:46:28;;;;;;;9.43;4.38;;;;;;;20.11;40.32;97974.03;10109088;29;20083;-59
2022/03/10 08:51:49;;;;;;;10.13;4.55;;;;;;;20.18;40.46;97976.31;10093473;29;20041;-59
2022/03/10 08:57:09;;;;;;;9.55;4.22;;;;;;;20.22;40.54;97976.53;10096771;29;20480;-58
2022/03/10 09:02:28;;;;;;;9.57;4.28;;;;;;;20.24;40.38;97980.53;10099962;29;20064;-59
2022/03/10 09:07:48;;;;;;;10.90;6.05;;;;;;;20.28;41.00;97976.13;10093424;29;20061;-58
2022/03/10 09:13:07;;;;;;;11.10;4.30;;;;;;;20.31;42.16;97980.16;10091500;29;20458;-59
2022/03/10 09:18:27;;;;;;;7.80;4.30;;;;;;;20.35;42.20;97976.53;10097700;29;20056;-58
2022/03/10 09:23:47;;;;;;;7.43;3.97;;;;;;;20.38;42.12;97977.03;10098655;29;20097;-59
2022/03/10 09:29:07;;;;;;;8.98;3.80;;;;;;;20.40;41.88;97966.72;10101327;29;20501;-59
2022/03/10 09:34:26;;;;;;;9.15;3.97;;;;;;;20.41;41.64;97973.75;10097643;29;20402;-60
2022/03/10 09:39:46;;;;;;;8.75;4.03;;;;;;;20.41;41.35;97979.94;10098489;29;20060;-59
2022/03/10 09:45:10;;;;;;;6.53;3.70;;;;;;;20.41;41.07;97974.53;10082781;29;20048;-59
2022/03/10 09:50:30;;;;;;;6.53;3.95;;;;;;;20.43;41.05;97972.31;10099569;29;20060;-59
2022/03/10 09:55:50;;;;;;;7.38;3.72;;;;;;;20.42;40.86;97970.72;10104608;29;20049;-59
2022/03/10 10:01:09;;;;;;;6.30;3.60;;;;;;;20.44;40.62;97975.81;10099325;29;20052;-59
2022/03/10 10:06:29;;;;;;;4.85;3.33;;;;;;;20.44;40.72;97976.63;10108569;29;20057;-59
2022/03/10 10:11:48;;;;;;;5.97;3.47;;;;;;;20.44;40.33;97978.53;10087257;29;20118;-59
2022/03/10 10:17:07;;;;;;;5.03;2.90;;;;;;;20.44;40.25;97984.75;10114146;29;20061;-59
2022/03/10 10:22:28;;;;;;;5.35;3.38;;;;;;;20.46;40.14;97985.25;10099918;29;20056;-59
2022/03/10 10:27:48;;;;;;;4.10;3.28;;;;;;;20.47;40.12;97973.31;10096562;29;20060;-59
2022/03/10 10:33:07;;;;;;;4.20;3.05;;;;;;;20.46;39.89;97985.25;10097734;29;20064;-59
2022/03/10 10:38:30;;;;;;;4.88;3.17;;;;;;;20.47;39.86;97986.06;10113218;29;20052;-59
2022/03/10 10:43:53;;;;;;;5.70;3.10;;;;;;;20.44;39.70;97976.63;10085907;29;20096;-59
2022/03/10 10:49:18;;;;;;;4.28;2.80;;;;;;;20.45;39.81;97980.16;10097914;29;20056;-60
2022/03/10 10:54:37;;;;;;;6.22;3.00;;;;;;;20.45;39.69;97986.34;10114283;29;21399;-60
2022/03/10 11:00:07;;;;;;;4.72;3.08;;;;;;;20.45;39.52;97977.44;10097591;29;20075;-59
2022/03/10 11:05:27;;;;;;;5.35;3.20;;;;;;;20.44;39.65;97975.81;10082024;29;20040;-59
2022/03/10 11:10:47;;;;;;;5.30;3.00;;;;;;;20.43;39.38;97969.63;10116207;29;20037;-59
2022/03/10 11:16:08;;;;;;;5.32;2.90;;;;;;;20.42;39.43;97959.88;10111982;29;20060;-59
2022/03/10 11:21:46;;;;;;;3.90;2.65;;;;;;;20.43;39.42;97958.00;10106886;29;20065;-59
2022/03/10 11:27:11;;;;;;;4.03;2.90;;;;;;;20.42;39.36;97959.09;10098832;29;20052;-59
2022/03/10 11:32:31;;;;;;;4.03;2.85;;;;;;;20.42;39.32;97959.88;10082118;29;20125;-59
2022/03/10 11:37:51;;;;;;;4.22;2.92;;;;;;;20.41;39.19;97955.59;10107469;29;20045;-59
2022/03/10 11:43:18;;;;;;;4.20;2.78;;;;;;;20.41;39.31;97957.50;10101162;29;20064;-59
2022/03/10 11:48:37;;;;;;;4.03;2.90;;;;;;;20.40;39.07;97955.88;10110689;29;20131;-59
2022/03/10 11:53:59;;;;;;;4.03;2.70;;;;;;;20.38;39.12;97953.47;10107033;29;20052;-59
2022/03/10 11:59:23;;;;;;;3.35;2.63;;;;;;;20.38;39.04;97955.38;10096654;29;20056;-59
2022/03/10 12:04:42;;;;;;;4.43;2.70;;;;;;;20.37;39.13;97957.28;10103220;29;20052;-59
2022/03/10 12:10:08;;;;;;;3.70;2.80;;;;;;;20.37;38.89;97961.91;10112201;29;20124;-59
2022/03/10 12:15:38;;;;;;;4.88;3.03;;;;;;;20.35;38.97;97960.28;10094303;29;20057;-59
2022/03/10 12:20:58;;;;;;;3.58;2.70;;;;;;;20.34;38.94;97957.88;10107830;29;20586;-58
2022/03/10 12:26:46;;;;;;;3.70;2.50;;;;;;;20.33;39.08;97948.97;10081879;29;20061;-59
2022/03/10 12:32:08;;;;;;;3.92;2.60;;;;;;;20.32;38.83;97946.56;10091400;29;20516;-59
2022/03/10 12:37:28;;;;;;;2.35;2.10;;;;;;;20.32;38.94;97941.94;10108787;29;20053;-59
2022/03/10 12:42:47;;;;;;;2.92;2.40;;;;;;;20.29;38.83;97934.44;10077648;29;20557;-59
2022/03/10 12:48:18;;;;;;;2.88;2.38;;;;;;;20.29;39.00;97941.75;10104430;29;20057;-58
2022/03/10 12:53:39;;;;;;;3.90;2.78;;;;;;;20.29;38.88;97936.34;10095459;29;20057;-59
2022/03/10 12:58:58;;;;;;;3.28;2.60;;;;;;;20.28;38.71;97940.94;10099597;29;20053;-59
2022/03/10 13:04:17;;;;;;;2.72;2.50;;;;;;;20.27;38.84;97936.66;10098546;29;20048;-59
2022/03/10 13:09:37;;;;;;;2.75;2.33;;;;;;;20.27;38.77;97935.84;10090216;29;20044;-59
2022/03/10 13:14:57;;;;;;;3.22;2.63;;;;;;;20.25;38.68;97938.84;10104247;29;20053;-59
2022/03/10 13:20:23;;;;;;;3.30;2.58;;;;;;;20.24;38.65;97937.25;10073961;29;1171275;-59
2022/03/10 13:25:43;;;;;;;2.75;2.40;;;;;;;20.23;38.75;97930.25;10100501;29;20428;-59
2022/03/10 13:31:04;;;;;;;3.42;2.75;;;;;;;20.23;38.85;97930.25;10100722;29;20049;-59
2022/03/10 13:36:23;;;;;;;2.83;2.50;;;;;;;20.22;38.67;97925.13;10090865;29;20398;-59
2022/03/10 13:41:43;;;;;;;2.90;2.60;;;;;;;20.21;38.85;97915.38;10104989;29;20125;-59
2022/03/10 13:47:07;;;;;;;3.88;2.70;;;;;;;20.20;38.66;97920.00;10099991;29;20057;-59
2022/03/10 13:52:27;;;;;;;2.53;2.17;;;;;;;20.19;38.82;97920.31;10115033;29;20052;-59
2022/03/10 13:57:47;;;;;;;2.47;2.20;;;;;;;20.19;38.86;97912.19;10100937;29;20478;-59
2022/03/10 14:03:08;;;;;;;2.35;2.10;;;;;;;20.17;38.74;97917.09;10099027;29;20056;-59
2022/03/10 14:08:28;;;;;;;2.75;2.00;;;;;;;20.16;38.65;97916.31;10102330;29;20041;-59
2022/03/10 14:13:48;;;;;;;3.15;2.47;;;;;;;20.13;38.66;97900.66;10102782;29;20117;-59
2022/03/10 14:19:20;;;;;;;2.42;2.22;;;;;;;20.12;38.67;97890.97;10097189;29;20065;-59
2022/03/10 14:24:40;;;;;;;2.40;2.20;;;;;;;20.11;38.71;97894.75;10096543;29;20121;-58
2022/03/10 14:30:00;;;;;;;3.05;2.17;;;;;;;20.10;38.68;97885.03;10085165;29;20116;-59
2022/03/10 14:35:19;;;;;;;2.30;2.03;;;;;;;20.08;38.66;97884.53;10109528;29;20068;-59
2022/03/10 14:40:42;;;;;;;2.85;2.47;;;;;;;20.07;38.70;97885.63;10123607;29;20469;-59
2022/03/10 14:46:03;;;;;;;2.45;1.92;;;;;;;20.06;38.71;97881.34;10117236;29;20060;-59
2022/03/10 14:51:22;;;;;;;2.15;1.80;;;;;;;20.05;38.74;97879.72;10097324;29;20136;-59
2022/03/10 14:56:45;;;;;;;2.50;2.30;;;;;;;20.04;38.54;97884.34;10068285;29;20389;-58
2022/03/10 15:02:05;;;;;;;2.35;2.10;;;;;;;20.04;38.64;97883.56;10097029;29;20053;-59
2022/03/10 15:07:24;;;;;;;2.20;2.00;;;;;;;20.02;38.53;97885.75;10101334;29;20060;-59
2022/03/10 15:12:48;;;;;;;2.67;2.15;;;;;;;20.00;38.48;97877.13;10096721;29;20109;-59
2022/03/10 15:18:08;;;;;;;2.28;2.03;;;;;;;20.01;38.55;97881.44;10103693;29;20052;-59
2022/03/10 15:23:29;;;;;;;2.10;1.90;;;;;;;19.99;38.44;97875.53;10086986;29;20057;-59
2022/03/10 15:28:48;;;;;;;2.20;2.00;;;;;;;19.98;38.60;97868.53;10109526;29;20468;-59
2022/03/10 15:34:08;;;;;;;2.25;2.05;;;;;;;19.97;38.63;97877.72;10107107;29;20063;-59
2022/03/10 15:39:29;;;;;;;2.97;1.90;;;;;;;19.97;38.59;97875.03;10112552;29;20063;-59
2022/03/10 15:44:48;;;;;;;2.58;2.30;;;;;;;19.95;38.57;97864.50;10096090;29;20059;-59
2022/03/10 15:50:09;;;;;;;2.53;2.10;;;;;;;19.93;38.36;97870.22;10115610;29;20037;-59
2022/03/10 15:55:32;;;;;;;2.45;2.10;;;;;;;19.92;38.44;97859.72;10094638;29;20052;-59
2022/03/10 16:00:51;;;;;;;2.30;2.10;;;;;;;19.90;38.41;97873.53;10094985;29;20068;-59
2022/03/10 16:06:10;;;;;;;3.10;2.35;;;;;;;19.89;38.32;97881.94;10110523;29;20057;-59
2022/03/10 16:11:29;;;;;;;2.13;1.90;;;;;;;19.87;38.30;97884.94;10113946;29;20057;-59
2022/03/10 16:16:49;;;;;;;1.95;1.75;;;;;;;19.86;38.30;97887.97;10100194;29;20037;-59
2022/03/10 16:22:10;;;;;;;2.78;2.58;;;;;;;19.83;37.23;97889.34;10090641;29;20072;-58
2022/03/10 16:27:31;;;;;;;6.28;5.43;;;;;;;19.77;31.20;97885.13;10095584;29;20100;-60
2022/03/10 16:32:51;;;;;;;6.65;4.50;;;;;;;19.68;33.45;97886.88;10106533;29;20056;-58
2022/03/10 16:38:11;;;;;;;4.70;3.60;;;;;;;19.56;33.14;97888.19;10105744;29;20049;-60
2022/03/10 16:43:31;;;;;;;6.78;4.80;;;;;;;19.56;33.30;97893.59;10088846;29;20057;-60
2022/03/10 16:48:51;;;;;;;8.15;5.45;;;;;;;19.57;33.67;97905.19;10097064;29;20052;-60
2022/03/10 16:54:11;;;;;;;7.82;6.28;;;;;;;19.44;27.19;97898.66;10096432;29;20771;-60
2022/03/10 16:59:35;;;;;;;6.18;5.10;;;;;;;19.41;32.27;97904.66;10096806;29;20084;-59
2022/03/10 17:04:54;;;;;;;7.15;5.00;;;;;;;19.44;33.72;97909.47;10092877;29;20085;-59
2022/03/10 17:10:13;;;;;;;6.78;4.80;;;;;;;19.46;33.87;97904.56;10086417;29;20053;-59
2022/03/10 17:15:33;;;;;;;5.35;4.57;;;;;;;19.48;33.84;97913.19;10088265;29;20101;-59
2022/03/10 17:20:53;;;;;;;5.93;5.15;;;;;;;19.51;34.13;97919.91;10078201;29;20072;-59
2022/03/10 17:26:14;;;;;;;5.88;4.60;;;;;;;19.52;34.26;97922.31;10087917;29;20105;-59
2022/03/10 17:31:33;;;;;;;4.55;4.13;;;;;;;19.53;34.41;97925.81;10088211;29;20060;-59
2022/03/10 17:36:53;;;;;;;4.70;4.20;;;;;;;19.54;34.61;97928.22;10087048;29;20053;-59
2022/03/10 17:42:12;;;;;;;5.53;4.40;;;;;;;19.55;35.00;97937.91;10098209;29;20659;-59
2022/03/10 17:47:31;;;;;;;4.30;3.88;;;;;;;19.56;35.03;97942.25;10110541;29;20048;-59
2022/03/10 17:52:52;;;;;;;6.32;4.30;;;;;;;19.56;33.95;97941.41;10094349;29;20533;-58
2022/03/10 17:58:11;;;;;;;6.70;4.70;;;;;;;19.58;34.61;97944.63;10091210;29;20390;-59
2022/03/10 18:03:31;;;;;;;10.88;4.13;;;;;;;19.61;35.26;97946.75;10096736;29;20405;-53
2022/03/10 18:08:51;;;;;;;6.32;4.20;;;;;;;19.65;35.63;97949.66;10109183;29;20045;-55
2022/03/10 18:14:10;;;;;;;7.95;4.70;;;;;;;19.68;35.86;97947.19;10094907;29;20056;-61
2022/03/10 18:19:29;;;;;;;5.78;4.10;;;;;;;19.71;36.06;97951.19;10101088;29;20049;-57
2022/03/10 18:24:50;;;;;;;6.85;4.40;;;;;;;19.74;36.30;97951.41;10095766;29;20053;-57
2022/03/10 18:30:11;;;;;;;6.18;4.43;;;;;;;19.76;36.31;97956.53;10093126;29;20084;-57
2022/03/10 18:35:31;;;;;;;4.25;3.85;;;;;;;19.81;36.43;97950.22;10107239;29;20408;-58
2022/03/10 18:40:50;;;;;;;4.22;3.83;;;;;;;19.83;36.40;97953.44;10093652;29;20064;-59
2022/03/10 18:46:12;;;;;;;4.05;3.60;;;;;;;19.86;36.66;97958.25;10089711;29;20048;-58
2022/03/10 18:51:34;;;;;;;6.82;3.95;;;;;;;19.88;36.59;97958.75;10089178;29;20061;-60
2022/03/10 18:56:53;;;;;;;4.38;3.60;;;;;;;19.90;36.85;97957.34;10081701;29;20050;-59
2022/03/10 19:02:13;;;;;;;5.65;3.90;;;;;;;19.92;37.00;97955.16;10092886;29;20409;-59
2022/03/10 19:07:33;;;;;;;3.90;3.50;;;;;;;19.94;36.99;97955.66;10105580;29;20535;-59
2022/03/10 19:12:53;;;;;;;4.28;3.50;;;;;;;19.97;36.92;97956.16;10104223;29;20610;-57
2022/03/10 19:18:12;;;;;;;3.83;3.45;;;;;;;20.01;37.21;97949.84;10093552;29;20060;-57
2022/03/10 19:23:33;;;;;;;5.22;3.60;;;;;;;20.04;37.32;97954.66;10090431;29;20057;-57
2022/03/10 19:28:53;;;;;;;4.65;3.65;;;;;;;20.06;37.38;97941.66;10090378;29;20056;-58
2022/03/10 19:34:13;;;;;;;5.75;4.00;;;;;;;20.10;37.49;97958.09;10093063;29;20053;-57
2022/03/10 19:39:33;;;;;;;5.47;3.50;;;;;;;20.10;37.61;97958.09;10092308;29;20067;-61
2022/03/10 19:44:52;;;;;;;4.32;3.30;;;;;;;20.11;37.74;97959.69;10095696;29;20044;-54
2022/03/10 19:50:12;;;;;;;5.68;3.75;;;;;;;20.13;37.91;97962.88;10091514;29;20049;-58
2022/03/10 19:55:35;;;;;;;4.53;3.40;;;;;;;20.13;37.94;97954.75;10090801;29;20053;-56
2022/03/10 20:00:55;;;;;;;5.80;3.28;;;;;;;20.14;38.15;97953.69;10091110;29;20080;-57
2022/03/10 20:06:15;;;;;;;6.20;3.22;;;;;;;20.14;38.23;97949.06;10097917;29;20053;-59
2022/03/10 20:11:35;;;;;;;6.63;3.70;;;;;;;20.18;38.47;97943.06;10066207;29;20057;-55
2022/03/10 20:16:55;;;;;;;4.53;3.40;;;;;;;20.17;38.58;97953.09;10081540;29;20056;-60
2022/03/10 20:22:14;;;;;;;6.47;3.80;;;;;;;20.19;38.83;97950.06;10080547;29;20110;-58
2022/03/10 20:27:36;;;;;;;6.50;3.63;;;;;;;20.19;38.81;97959.00;10061819;29;20057;-58
2022/03/10 20:32:55;;;;;;;5.55;3.50;;;;;;;20.18;38.92;97970.91;10091942;29;20056;-58
2022/03/10 20:38:15;;;;;;;4.13;3.38;;;;;;;20.19;38.99;97964.41;10069056;29;20061;-57
2022/03/10 20:43:36;;;;;;;5.38;3.75;;;;;;;20.21;39.20;97974.91;10090476;29;20057;-55
2022/03/10 20:48:56;;;;;;;5.53;3.80;;;;;;;20.20;39.12;97967.91;10093177;29;20061;-54
2022/03/10 20:54:15;;;;;;;5.15;3.97;;;;;;;20.19;39.16;97972.53;10092530;29;20513;-51
2022/03/10 20:59:35;;;;;;;7.22;3.58;;;;;;;20.19;39.03;97972.53;10092531;29;20061;-54
2022/03/10 21:04:55;;;;;;;4.78;3.15;;;;;;;20.19;39.17;97966.28;10091729;29;20053;-55
2022/03/10 21:10:15;;;;;;;5.65;3.33;;;;;;;20.19;39.16;97972.53;10088475;29;20413;-54
2022/03/10 21:15:34;;;;;;;5.60;3.92;;;;;;;20.18;39.22;97976.31;10063133;29;20045;-54
2022/03/10 21:20:54;;;;;;;4.78;3.78;;;;;;;20.18;39.30;97962.78;10102313;29;20116;-54
2022/03/10 21:26:14;;;;;;;5.05;3.42;;;;;;;20.18;39.37;97959.28;10094219;29;20053;-55
2022/03/10 21:31:36;;;;;;;5.30;3.53;;;;;;;20.16;39.36;97962.28;10094640;29;20061;-55
2022/03/10 21:36:56;;;;;;;6.65;4.10;;;;;;;20.16;39.16;97967.72;10093187;29;20079;-55
2022/03/10 21:42:18;;;;;;;4.35;3.70;;;;;;;20.13;39.25;97968.28;10111378;29;20469;-60
2022/03/10 21:47:38;;;;;;;5.47;3.90;;;;;;;20.14;39.30;97980.72;10097812;29;20060;-61
2022/03/10 21:52:57;;;;;;;4.60;3.38;;;;;;;20.13;39.34;97979.13;10099616;29;20109;-61
2022/03/10 21:58:17;;;;;;;4.85;3.47;;;;;;;20.11;39.19;97976.72;10097963;29;20056;-56
2022/03/10 22:03:37;;;;;;;4.57;3.40;;;;;;;20.11;39.28;97979.44;10091184;29;20049;-56
2022/03/10 22:08:56;;;;;;;4.78;3.60;;;;;;;20.10;39.26;97968.91;10093023;29;20109;-56
2022/03/10 22:14:18;;;;;;;5.68;3.70;;;;;;;20.10;39.20;97979.72;10092410;29;20049;-57
2022/03/10 22:19:38;;;;;;;3.67;3.30;;;;;;;20.08;39.24;97973.81;10093842;29;20414;-58
2022/03/10 22:24:57;;;;;;;4.25;3.42;;;;;;;20.07;39.15;97970.31;10091548;29;20450;-56
2022/03/10 22:30:18;;;;;;;4.60;3.35;;;;;;;20.07;39.40;97967.63;10087071;29;20687;-59
2022/03/10 22:35:37;;;;;;;4.60;3.25;;;;;;;20.07;39.33;97974.91;10094322;29;20075;-59
2022/03/10 22:40:59;;;;;;;3.33;3.00;;;;;;;20.06;39.23;97959.78;10093763;29;20448;-59
2022/03/10 22:46:20;;;;;;;3.33;3.03;;;;;;;20.05;39.00;97966.28;10092547;29;20681;-59
2022/03/10 22:57:18;;;;;;;3.80;2.90;;;;;;;20.01;38.78;97949.84;10084413;29;20620;-59
2022/03/10 23:02:37;;;;;;;4.20;3.40;;;;;;;20.01;38.66;97955.25;10108779;29;20044;-58
2022/03/10 23:07:57;;;;;;;3.97;3.28;;;;;;;20.00;38.73;97955.56;10093409;29;20075;-59
2022/03/10 23:13:16;;;;;;;4.68;3.40;;;;;;;19.98;38.71;97961.28;10081617;29;20110;-59
2022/03/10 23:18:36;;;;;;;4.07;3.40;;;;;;;19.98;38.56;97952.38;10089275;29;20561;-59
2022/03/10 23:23:56;;;;;;;3.95;3.08;;;;;;;19.94;38.51;97950.25;10093091;29;20057;-59
2022/03/10 23:29:15;;;;;;;3.80;3.20;;;;;;;19.93;38.48;97948.66;10095040;29;20061;-59
2022/03/10 23:34:35;;;;;;;3.92;3.50;;;;;;;19.92;38.52;97941.63;10094440;29;20049;-59
2022/03/10 23:39:54;;;;;;;3.35;2.92;;;;;;;19.92;38.49;97949.75;10094531;29;20061;-59
2022/03/10 23:45:13;;;;;;;3.33;3.03;;;;;;;19.89;38.33;97953.03;10106410;29;20045;-59
2022/03/10 23:50:33;;;;;;;3.13;2.80;;;;;;;19.87;38.35;97960.66;10106614;29;20075;-59
2022/03/10 23:55:53;;;;;;;3.70;3.30;;;;;;;19.87;38.24;97955.25;10093483;29;20045;-59
